Flight Track Log - Related Links

Times and Time Zones

All times are in EDT time to prevent confusion due to time zone crossing. See the EJA831 flight status page for this flight to view local times or setup timezone preferences in your user account.

Time Position Orientation Groundspeed Altitude Reporting Facility
EDT Latitude Longitude Course Direction KTS MPH feet Rate Location/Type
Sat 02:53:17 PM 34.0000 -118.5000 61° Northeast 178 205 2,700  Level Southern California TRACON
Sat 02:53:51 PM 33.9975 -118.5333 265° West 195 224 3,200 2,063 Climbing Los Angeles Center
Sat 02:54:53 PM 34.0064 -118.6006 279° West 217 250 6,000 1,839 Climbing Los Angeles Center
Sat 02:55:55 PM 34.0736 -118.5878 North 252 290 7,000 581 Climbing Los Angeles Center
Sat 02:56:57 PM 34.1356 -118.5406 32° Northeast 275 316 7,200 1,403 Climbing Los Angeles Center
Sat 02:57:59 PM 34.2011 -118.4892 33° Northeast 279 321 9,900 2,806 Climbing Los Angeles Center
Sat 02:58:00 PM 34.1800 -118.5809 61° Northeast  Level FlightAware Approximate
Sat 02:59:01 PM 34.2875 -118.4569 17° North 305 351 13,000  Level Los Angeles Center
Sat 03:00:03 PM 34.3464 -118.4589 358° North 306 352 15,000 2,736 Climbing Los Angeles Center
Sat 03:01:06 PM 34.4211 -118.3436 52° Northeast 336 387 18,700 2,784 Climbing Los Angeles Center
Sat 03:02:08 PM 34.4561 -118.2333 69° East 349 402 20,800 1,935 Climbing Los Angeles Center
Sat 03:03:10 PM 34.4886 -118.1297 69° East 364 419 22,700 2,081 Climbing Los Angeles Center
Sat 03:04:12 PM 34.5333 -117.9850 69° East 382 440 25,100 2,177 Climbing Los Angeles Center
Sat 03:05:14 PM 34.5714 -117.8625 69° East 389 448 27,200 1,839 Climbing Los Angeles Center
Sat 03:06:16 PM 34.6092 -117.7406 69° East 389 448 28,900 1,790 Climbing Los Angeles Center
Sat 03:07:18 PM 34.6467 -117.6158 70° East 395 455 30,900 2,032 Climbing Los Angeles Center
Sat 03:08:20 PM 34.6964 -117.5042 62° Northeast 384 442 33,100 2,129 Climbing Los Angeles Center
Sat 03:09:22 PM 34.7700 -117.3822 54° Northeast 377 434 35,300 1,839 Climbing Los Angeles Center
Sat 03:10:24 PM 34.8311 -117.2800 54° Northeast 376 433 36,900 823 Climbing Los Angeles Center
Sat 03:11:26 PM 34.8958 -117.1722 54° Northeast 398 458 37,000 48 Climbing Los Angeles Center
Sat 03:12:28 PM 34.9656 -117.0592 53° Northeast 419 482 37,000  Level Los Angeles Center
Sat 03:13:30 PM 35.0322 -116.9486 54° Northeast 409 471 37,000  Level Los Angeles Center
Sat 03:14:32 PM 35.1094 -116.8197 54° Northeast 398 458 37,000  Level Los Angeles Center
Sat 03:15:34 PM 35.1714 -116.7156 54° Northeast 387 445 37,000  Level Los Angeles Center
Sat 03:16:36 PM 35.2333 -116.6108 54° Northeast 383 441 37,000  Level Los Angeles Center
Sat 03:17:37 PM 35.2947 -116.5086 54° Northeast 377 434 37,000  Level Los Angeles Center
Sat 03:18:39 PM 35.3561 -116.4050 54° Northeast 375 432 37,000  Level Los Angeles Center
Sat 03:19:41 PM 35.4175 -116.3011 54° Northeast 378 435 37,000  Level Los Angeles Center
Sat 03:20:43 PM 35.4914 -116.1753 54° Northeast 379 436 37,000  Level Los Angeles Center
Sat 03:21:45 PM 35.5536 -116.0700 54° Northeast 380 437 37,000  Level Los Angeles Center
Sat 03:22:47 PM 35.6156 -115.9644 54° Northeast 381 438 37,000  Level Los Angeles Center
Sat 03:23:49 PM 35.6767 -115.8581 55° Northeast 380 437 37,000  Level Los Angeles Center
Sat 03:24:51 PM 35.7381 -115.7533 54° Northeast 377 434 37,000  Level Los Angeles Center
Sat 03:25:53 PM 35.8119 -115.6256 54° Northeast 382 440 37,000  Level Los Angeles Center
Sat 03:26:54 PM 35.8742 -115.5192 54° Northeast 384 442 37,000  Level Los Angeles Center
Sat 03:27:56 PM 35.9344 -115.4128 55° Northeast 383 441 37,000  Level Los Angeles Center
Sat 03:28:58 PM 35.9947 -115.3081 55° Northeast 380 437 37,000  Level Los Angeles Center
Sat 03:30:00 PM 36.0528 -115.2053 55° Northeast 371 427 37,000  Level Los Angeles Center
Sat 03:31:02 PM 36.1169 -115.1083 51° Northeast 367 422 37,000  Level Los Angeles Center
Sat 03:32:04 PM 36.2017 -115.0019 45° Northeast 364 419 37,000  Level Los Angeles Center
Sat 03:33:06 PM 36.2717 -114.9150 45° Northeast 360 414 37,000  Level Los Angeles Center
Sat 03:35:00 PM 36.3961 -114.7569 46° Northeast 357 411 37,000  Level Salt Lake Center
Sat 03:36:02 PM 36.4772 -114.6508 46° Northeast 353 406 37,000  Level Salt Lake Center
Sat 03:37:14 PM 36.5569 -114.5428 47° Northeast 354 407 37,000  Level Los Angeles Center
Sat 03:38:16 PM 36.6242 -114.4544 47° Northeast 352 405 37,000  Level Los Angeles Center
Sat 03:39:17 PM 36.6911 -114.3658 47° Northeast 351 404 37,000  Level Los Angeles Center
Sat 03:40:19 PM 36.7578 -114.2758 47° Northeast 353 406 37,000  Level Los Angeles Center
Sat 03:41:21 PM 36.8092 -114.1703 59° Northeast 354 407 37,000  Level Los Angeles Center
Sat 03:42:23 PM 36.8600 -114.0642 59° Northeast 356 410 37,000  Level Los Angeles Center
Sat 03:43:25 PM 36.9108 -113.9586 59° Northeast 355 409 37,000  Level Los Angeles Center
Sat 03:44:27 PM 36.9711 -113.8350 59° Northeast 355 409 37,000  Level Los Angeles Center
Sat 03:45:29 PM 37.0222 -113.7286 59° Northeast 356 410 37,000  Level Los Angeles Center
Sat 03:46:31 PM 37.0736 -113.6231 59° Northeast 355 409 37,000  Level Los Angeles Center
Sat 03:47:32 PM 37.1244 -113.5167 59° Northeast 356 410 37,000  Level Los Angeles Center
Sat 03:48:34 PM 37.1750 -113.4094 59° Northeast 357 411 37,000  Level Los Angeles Center
Sat 03:49:36 PM 37.2244 -113.3033 60° Northeast 355 409 37,000  Level Los Angeles Center
Sat 03:50:38 PM 37.2844 -113.1758 59° Northeast 354 407 37,000  Level Los Angeles Center
Sat 03:51:40 PM 37.3353 -113.0700 59° Northeast 355 409 37,000  Level Los Angeles Center
Sat 03:52:42 PM 37.3842 -112.9631 60° Northeast 355 409 37,000  Level Los Angeles Center
Sat 03:53:43 PM 37.4322 -112.8575 60° Northeast 354 407 37,000  Level Los Angeles Center
Sat 03:54:34 PM 37.4811 -112.7514 60° Northeast 358 412 37,000  Level Salt Lake Center
Sat 03:55:35 PM 37.5311 -112.6461 59° Northeast 358 412 37,000  Level Salt Lake Center
Sat 03:56:37 PM 37.5806 -112.5403 59° Northeast 355 409 37,000  Level Salt Lake Center
Sat 03:57:38 PM 37.6300 -112.4344 59° Northeast 353 406 37,000  Level Salt Lake Center
Sat 03:58:40 PM 37.6789 -112.3272 60° Northeast 354 407 37,000  Level Salt Lake Center
Sat 03:59:41 PM 37.7269 -112.2183 61° Northeast 355 409 37,000  Level Salt Lake Center
Sat 04:00:43 PM 37.7742 -112.1081 62° Northeast 358 412 37,000  Level Salt Lake Center
Sat 04:01:45 PM 37.8314 -111.9761 61° Northeast 358 412 37,000  Level Salt Lake Center
Sat 04:02:46 PM 37.8783 -111.8664 62° Northeast 357 411 37,000  Level Salt Lake Center
Sat 04:03:48 PM 37.9258 -111.7558 61° Northeast 358 412 37,000  Level Salt Lake Center
Sat 04:04:49 PM 37.9733 -111.6453 61° Northeast 358 412 37,000  Level Salt Lake Center
Sat 04:05:51 PM 38.0219 -111.5350 61° Northeast 359 413 37,000  Level Salt Lake Center
Sat 04:06:53 PM 38.0681 -111.4242 62° Northeast 357 411 37,000 -1,122 Level Salt Lake Center
Sat 04:07:54 PM 38.1175 -111.3100 61° Northeast 366 421 34,700 -2,634 Descending Salt Lake Center
Sat 04:08:56 PM 38.1775 -111.1644 62° Northeast 385 443 31,600 -2,732 Descending Salt Lake Center
Sat 04:09:57 PM 38.2272 -111.0475 62° Northeast 380 437 29,100 -2,390 Descending Salt Lake Center
Sat 04:10:59 PM 38.2750 -110.9297 63° Northeast 376 433 26,700 -2,419 Descending Salt Lake Center
Sat 04:12:01 PM 38.3247 -110.8053 63° Northeast 370 426 24,100 -2,390 Descending Salt Lake Center
Sat 04:13:02 PM 38.3706 -110.6972 62° Northeast 365 420 21,800 -2,195 Descending Salt Lake Center
Sat 04:14:04 PM 38.4133 -110.5931 62° Northeast 353 406 19,600 -2,098 Descending Salt Lake Center
Sat 04:15:05 PM 38.4608 -110.4756 63° Northeast 340 391 17,500 -2,000 Descending Salt Lake Center
Sat 04:16:07 PM 38.4989 -110.3808 63° Northeast 324 373 15,500 -2,098 Descending Salt Lake Center
Sat 04:17:08 PM 38.5419 -110.2758 62° Northeast 310 357 13,200 -1,220 Descending Salt Lake Center
Sat 04:18:10 PM 38.5761 -110.1928 62° Northeast 293 337 13,000 -194 Descending Salt Lake Center
Sat 04:19:12 PM 38.6122 -110.1042 62° Northeast 268 308 12,800 -780 Descending Salt Lake Center
Sat 04:20:13 PM 38.6444 -110.0258 62° Northeast 261 300 11,400 -878 Descending Salt Lake Center
Sat 04:21:15 PM 38.6736 -109.9525 63° Northeast 253 291 11,000 -634 Descending Salt Lake Center
Sat 04:22:16 PM 38.7261 -109.8925 42° Northeast 234 269 10,100 -488 Descending Salt Lake Center
Sat 04:23:18 PM 38.7811 -109.8556 28° Northeast 230 265 10,000 -97 Descending Salt Lake Center

Login

Don't have an account? Register now (free) for customized features, flight alerts, and more!